sensor_id;sensor_type;location;lat;lon;timestamp;P1;durP1;ratioP1;P2;durP2;ratioP2
69769;SDS011;57282;52.514;13.458;2023-04-03T00:00:31;31.33;;;10.43;;
69769;SDS011;57282;52.514;13.458;2023-04-03T00:02:57;16.85;;;8.30;;
69769;SDS011;57282;52.514;13.458;2023-04-03T00:05:24;32.85;;;9.85;;
69769;SDS011;57282;52.514;13.458;2023-04-03T00:07:51;20.15;;;9.02;;
69769;SDS011;57282;52.514;13.458;2023-04-03T00:10:18;19.00;;;9.00;;
69769;SDS011;57282;52.514;13.458;2023-04-03T00:12:44;18.03;;;9.07;;
69769;SDS011;57282;52.514;13.458;2023-04-03T00:15:11;20.30;;;9.55;;
69769;SDS011;57282;52.514;13.458;2023-04-03T00:17:39;18.42;;;9.07;;
69769;SDS011;57282;52.514;13.458;2023-04-03T00:20:06;19.55;;;9.68;;
69769;SDS011;57282;52.514;13.458;2023-04-03T00:22:32;22.02;;;10.50;;
69769;SDS011;57282;52.514;13.458;2023-04-03T00:24:59;18.57;;;9.80;;
69769;SDS011;57282;52.514;13.458;2023-04-03T00:27:26;19.50;;;10.02;;
69769;SDS011;57282;52.514;13.458;2023-04-03T00:29:52;19.33;;;9.57;;
69769;SDS011;57282;52.514;13.458;2023-04-03T00:32:19;22.38;;;8.90;;
69769;SDS011;57282;52.514;13.458;2023-04-03T00:34:47;21.38;;;8.95;;
69769;SDS011;57282;52.514;13.458;2023-04-03T00:37:13;21.87;;;9.93;;
69769;SDS011;57282;52.514;13.458;2023-04-03T00:39:40;19.33;;;10.00;;
69769;SDS011;57282;52.514;13.458;2023-04-03T00:42:06;21.50;;;9.25;;
69769;SDS011;57282;52.514;13.458;2023-04-03T00:47:18;18.17;;;9.55;;
69769;SDS011;57282;52.514;13.458;2023-04-03T00:49:46;19.93;;;10.50;;
69769;SDS011;57282;52.514;13.458;2023-04-03T00:52:13;23.58;;;10.40;;
69769;SDS011;57282;52.514;13.458;2023-04-03T00:54:41;20.08;;;9.82;;
69769;SDS011;57282;52.514;13.458;2023-04-03T00:57:08;18.83;;;10.07;;
69769;SDS011;57282;52.514;13.458;2023-04-03T00:59:38;20.70;;;10.52;;
69769;SDS011;57282;52.514;13.458;2023-04-03T01:02:05;19.70;;;10.50;;
69769;SDS011;57282;52.514;13.458;2023-04-03T01:04:32;19.00;;;10.35;;
69769;SDS011;57282;52.514;13.458;2023-04-03T01:07:02;9.65;;;3.75;;
69769;SDS011;57282;52.514;13.458;2023-04-03T01:09:29;43.45;;;4.97;;
69769;SDS011;57282;52.514;13.458;2023-04-03T01:14:37;16.50;;;6.73;;
69769;SDS011;57282;52.514;13.458;2023-04-03T01:19:45;19.75;;;7.50;;
69769;SDS011;57282;52.514;13.458;2023-04-03T01:22:16;15.10;;;6.90;;
69769;SDS011;57282;52.514;13.458;2023-04-03T01:24:45;19.98;;;7.63;;
69769;SDS011;57282;52.514;13.458;2023-04-03T01:27:12;17.30;;;7.93;;
69769;SDS011;57282;52.514;13.458;2023-04-03T01:29:38;25.08;;;7.95;;
69769;SDS011;57282;52.514;13.458;2023-04-03T01:32:07;21.02;;;7.30;;
69769;SDS011;57282;52.514;13.458;2023-04-03T01:34:34;19.33;;;7.57;;
69769;SDS011;57282;52.514;13.458;2023-04-03T01:37:00;18.42;;;8.25;;
69769;SDS011;57282;52.514;13.458;2023-04-03T01:39:27;17.07;;;7.93;;
69769;SDS011;57282;52.514;13.458;2023-04-03T01:41:53;19.40;;;8.30;;
69769;SDS011;57282;52.514;13.458;2023-04-03T01:44:20;17.30;;;7.63;;
69769;SDS011;57282;52.514;13.458;2023-04-03T01:46:46;16.27;;;7.43;;
69769;SDS011;57282;52.514;13.458;2023-04-03T01:49:14;19.63;;;8.35;;
69769;SDS011;57282;52.514;13.458;2023-04-03T01:51:41;15.97;;;7.70;;
69769;SDS011;57282;52.514;13.458;2023-04-03T01:54:07;15.57;;;7.18;;
69769;SDS011;57282;52.514;13.458;2023-04-03T01:56:34;17.48;;;7.50;;
69769;SDS011;57282;52.514;13.458;2023-04-03T01:59:01;17.08;;;7.10;;
69769;SDS011;57282;52.514;13.458;2023-04-03T02:01:27;18.30;;;7.85;;
69769;SDS011;57282;52.514;13.458;2023-04-03T02:03:54;16.13;;;7.87;;
69769;SDS011;57282;52.514;13.458;2023-04-03T02:06:22;19.42;;;8.27;;
69769;SDS011;57282;52.514;13.458;2023-04-03T02:08:48;19.70;;;8.10;;
69769;SDS011;57282;52.514;13.458;2023-04-03T02:11:15;16.80;;;7.65;;
69769;SDS011;57282;52.514;13.458;2023-04-03T02:13:41;15.48;;;7.38;;
69769;SDS011;57282;52.514;13.458;2023-04-03T02:16:08;17.87;;;8.60;;
69769;SDS011;57282;52.514;13.458;2023-04-03T02:18:35;18.70;;;8.02;;
69769;SDS011;57282;52.514;13.458;2023-04-03T02:21:02;18.27;;;7.78;;
69769;SDS011;57282;52.514;13.458;2023-04-03T02:23:30;16.73;;;7.85;;
69769;SDS011;57282;52.514;13.458;2023-04-03T02:26:02;19.67;;;8.45;;
69769;SDS011;57282;52.514;13.458;2023-04-03T02:28:29;15.60;;;7.17;;
69769;SDS011;57282;52.514;13.458;2023-04-03T02:30:55;17.00;;;8.27;;
69769;SDS011;57282;52.514;13.458;2023-04-03T02:33:22;18.58;;;8.30;;
69769;SDS011;57282;52.514;13.458;2023-04-03T02:35:51;16.63;;;7.85;;
69769;SDS011;57282;52.514;13.458;2023-04-03T02:38:18;18.42;;;8.00;;
69769;SDS011;57282;52.514;13.458;2023-04-03T02:40:46;19.50;;;8.40;;
69769;SDS011;57282;52.514;13.458;2023-04-03T02:43:12;16.67;;;8.43;;
69769;SDS011;57282;52.514;13.458;2023-04-03T02:45:39;17.88;;;7.93;;
69769;SDS011;57282;52.514;13.458;2023-04-03T02:48:06;18.23;;;8.60;;
69769;SDS011;57282;52.514;13.458;2023-04-03T02:50:32;17.30;;;7.45;;
69769;SDS011;57282;52.514;13.458;2023-04-03T02:52:59;18.10;;;7.40;;
69769;SDS011;57282;52.514;13.458;2023-04-03T02:55:25;18.30;;;8.18;;
69769;SDS011;57282;52.514;13.458;2023-04-03T02:57:53;17.35;;;8.35;;
69769;SDS011;57282;52.514;13.458;2023-04-03T03:00:20;20.23;;;9.10;;
69769;SDS011;57282;52.514;13.458;2023-04-03T03:02:48;17.00;;;7.88;;
69769;SDS011;57282;52.514;13.458;2023-04-03T03:05:15;17.97;;;8.80;;
69769;SDS011;57282;52.514;13.458;2023-04-03T03:07:42;17.80;;;8.13;;
69769;SDS011;57282;52.514;13.458;2023-04-03T03:10:08;17.83;;;8.10;;
69769;SDS011;57282;52.514;13.458;2023-04-03T03:12:35;18.52;;;8.07;;
69769;SDS011;57282;52.514;13.458;2023-04-03T03:15:03;16.95;;;8.00;;
69769;SDS011;57282;52.514;13.458;2023-04-03T03:17:30;18.73;;;8.20;;
69769;SDS011;57282;52.514;13.458;2023-04-03T03:19:56;17.73;;;8.57;;
69769;SDS011;57282;52.514;13.458;2023-04-03T03:22:23;16.60;;;8.18;;
69769;SDS011;57282;52.514;13.458;2023-04-03T03:24:50;17.83;;;8.38;;
69769;SDS011;57282;52.514;13.458;2023-04-03T03:27:16;18.02;;;8.48;;
69769;SDS011;57282;52.514;13.458;2023-04-03T03:29:43;19.30;;;8.83;;
69769;SDS011;57282;52.514;13.458;2023-04-03T03:32:11;19.50;;;8.85;;
69769;SDS011;57282;52.514;13.458;2023-04-03T03:34:37;18.58;;;9.60;;
69769;SDS011;57282;52.514;13.458;2023-04-03T03:37:04;18.83;;;9.05;;
69769;SDS011;57282;52.514;13.458;2023-04-03T03:39:30;17.88;;;8.23;;
69769;SDS011;57282;52.514;13.458;2023-04-03T03:41:57;18.40;;;8.40;;
69769;SDS011;57282;52.514;13.458;2023-04-03T03:44:24;19.17;;;9.40;;
69769;SDS011;57282;52.514;13.458;2023-04-03T03:46:50;17.45;;;8.73;;
69769;SDS011;57282;52.514;13.458;2023-04-03T03:49:18;18.50;;;9.13;;
69769;SDS011;57282;52.514;13.458;2023-04-03T03:51:44;19.13;;;9.52;;
69769;SDS011;57282;52.514;13.458;2023-04-03T03:54:12;18.23;;;8.50;;
69769;SDS011;57282;52.514;13.458;2023-04-03T03:56:38;19.08;;;8.55;;
69769;SDS011;57282;52.514;13.458;2023-04-03T03:59:05;17.88;;;8.63;;
69769;SDS011;57282;52.514;13.458;2023-04-03T04:01:32;17.48;;;8.20;;
69769;SDS011;57282;52.514;13.458;2023-04-03T04:03:58;16.77;;;8.80;;
69769;SDS011;57282;52.514;13.458;2023-04-03T04:06:26;20.17;;;8.80;;
69769;SDS011;57282;52.514;13.458;2023-04-03T04:08:53;17.95;;;8.38;;
69769;SDS011;57282;52.514;13.458;2023-04-03T04:11:19;18.77;;;8.68;;
69769;SDS011;57282;52.514;13.458;2023-04-03T04:13:47;18.17;;;8.93;;
69769;SDS011;57282;52.514;13.458;2023-04-03T04:16:13;19.77;;;8.65;;
69769;SDS011;57282;52.514;13.458;2023-04-03T04:18:40;16.73;;;8.73;;
69769;SDS011;57282;52.514;13.458;2023-04-03T04:21:06;17.17;;;8.45;;
69769;SDS011;57282;52.514;13.458;2023-04-03T04:23:34;20.02;;;8.75;;
69769;SDS011;57282;52.514;13.458;2023-04-03T04:26:00;17.23;;;8.65;;
69769;SDS011;57282;52.514;13.458;2023-04-03T04:28:27;16.48;;;8.40;;
69769;SDS011;57282;52.514;13.458;2023-04-03T04:30:54;17.77;;;8.87;;
69769;SDS011;57282;52.514;13.458;2023-04-03T04:33:20;18.58;;;8.57;;
69769;SDS011;57282;52.514;13.458;2023-04-03T04:35:47;18.27;;;8.55;;
69769;SDS011;57282;52.514;13.458;2023-04-03T04:38:14;19.55;;;9.00;;
69769;SDS011;57282;52.514;13.458;2023-04-03T04:40:42;17.77;;;8.57;;
69769;SDS011;57282;52.514;13.458;2023-04-03T04:43:08;18.50;;;8.57;;
69769;SDS011;57282;52.514;13.458;2023-04-03T04:45:35;19.10;;;9.00;;
69769;SDS011;57282;52.514;13.458;2023-04-03T04:48:02;17.17;;;8.52;;
69769;SDS011;57282;52.514;13.458;2023-04-03T04:50:29;18.98;;;8.80;;
69769;SDS011;57282;52.514;13.458;2023-04-03T04:52:56;18.77;;;9.35;;
69769;SDS011;57282;52.514;13.458;2023-04-03T04:55:22;17.10;;;8.37;;
69769;SDS011;57282;52.514;13.458;2023-04-03T04:57:50;18.50;;;8.95;;
69769;SDS011;57282;52.514;13.458;2023-04-03T05:00:17;18.27;;;8.65;;
69769;SDS011;57282;52.514;13.458;2023-04-03T05:02:44;17.38;;;8.52;;
69769;SDS011;57282;52.514;13.458;2023-04-03T05:05:10;16.52;;;7.88;;
69769;SDS011;57282;52.514;13.458;2023-04-03T05:07:37;16.90;;;8.20;;
69769;SDS011;57282;52.514;13.458;2023-04-03T05:10:03;16.52;;;8.32;;
69769;SDS011;57282;52.514;13.458;2023-04-03T05:12:31;17.42;;;8.20;;
69769;SDS011;57282;52.514;13.458;2023-04-03T05:14:59;16.60;;;8.10;;
69769;SDS011;57282;52.514;13.458;2023-04-03T05:17:25;18.52;;;8.02;;
69769;SDS011;57282;52.514;13.458;2023-04-03T05:19:52;18.77;;;9.33;;
69769;SDS011;57282;52.514;13.458;2023-04-03T05:22:18;15.35;;;8.05;;
69769;SDS011;57282;52.514;13.458;2023-04-03T05:24:45;17.20;;;7.88;;
69769;SDS011;57282;52.514;13.458;2023-04-03T05:27:12;17.33;;;8.25;;
69769;SDS011;57282;52.514;13.458;2023-04-03T05:29:38;18.33;;;8.50;;
69769;SDS011;57282;52.514;13.458;2023-04-03T05:32:10;16.60;;;7.87;;
69769;SDS011;57282;52.514;13.458;2023-04-03T05:34:36;16.15;;;8.10;;
69769;SDS011;57282;52.514;13.458;2023-04-03T05:37:03;15.30;;;7.35;;
69769;SDS011;57282;52.514;13.458;2023-04-03T05:39:30;16.55;;;7.05;;
69769;SDS011;57282;52.514;13.458;2023-04-03T05:41:57;17.60;;;7.95;;
69769;SDS011;57282;52.514;13.458;2023-04-03T05:44:23;15.70;;;7.47;;
69769;SDS011;57282;52.514;13.458;2023-04-03T05:46:50;15.43;;;7.25;;
69769;SDS011;57282;52.514;13.458;2023-04-03T05:49:18;14.70;;;7.00;;
69769;SDS011;57282;52.514;13.458;2023-04-03T05:51:44;15.18;;;7.43;;
69769;SDS011;57282;52.514;13.458;2023-04-03T05:54:12;15.40;;;7.47;;
69769;SDS011;57282;52.514;13.458;2023-04-03T05:56:39;13.67;;;6.93;;
69769;SDS011;57282;52.514;13.458;2023-04-03T05:59:06;15.30;;;6.70;;
69769;SDS011;57282;52.514;13.458;2023-04-03T06:01:34;13.93;;;6.55;;
69769;SDS011;57282;52.514;13.458;2023-04-03T06:04:01;16.15;;;7.40;;
69769;SDS011;57282;52.514;13.458;2023-04-03T06:09:11;15.87;;;7.63;;
69769;SDS011;57282;52.514;13.458;2023-04-03T06:11:37;15.50;;;7.07;;
69769;SDS011;57282;52.514;13.458;2023-04-03T06:14:04;14.85;;;6.80;;
69769;SDS011;57282;52.514;13.458;2023-04-03T06:16:31;15.13;;;7.38;;
69769;SDS011;57282;52.514;13.458;2023-04-03T06:18:57;13.05;;;6.25;;
69769;SDS011;57282;52.514;13.458;2023-04-03T06:21:24;15.63;;;7.37;;
69769;SDS011;57282;52.514;13.458;2023-04-03T06:23:51;14.77;;;7.32;;
69769;SDS011;57282;52.514;13.458;2023-04-03T06:26:19;14.68;;;6.72;;
69769;SDS011;57282;52.514;13.458;2023-04-03T06:28:46;16.00;;;7.72;;
69769;SDS011;57282;52.514;13.458;2023-04-03T06:31:12;15.35;;;7.38;;
69769;SDS011;57282;52.514;13.458;2023-04-03T06:33:39;14.87;;;7.30;;
69769;SDS011;57282;52.514;13.458;2023-04-03T06:36:06;13.70;;;6.60;;
69769;SDS011;57282;52.514;13.458;2023-04-03T06:38:33;14.07;;;7.90;;
69769;SDS011;57282;52.514;13.458;2023-04-03T06:40:59;16.67;;;7.75;;
69769;SDS011;57282;52.514;13.458;2023-04-03T06:43:27;20.75;;;7.57;;
69769;SDS011;57282;52.514;13.458;2023-04-03T06:45:56;19.10;;;8.97;;
69769;SDS011;57282;52.514;13.458;2023-04-03T06:48:22;23.02;;;9.15;;
69769;SDS011;57282;52.514;13.458;2023-04-03T06:50:49;13.52;;;4.50;;
69769;SDS011;57282;52.514;13.458;2023-04-03T06:53:15;6.88;;;1.80;;
69769;SDS011;57282;52.514;13.458;2023-04-03T06:55:42;12.50;;;2.30;;
69769;SDS011;57282;52.514;13.458;2023-04-03T06:58:09;11.03;;;3.97;;
69769;SDS011;57282;52.514;13.458;2023-04-03T07:00:37;17.10;;;5.35;;
69769;SDS011;57282;52.514;13.458;2023-04-03T07:03:03;13.15;;;5.68;;
69769;SDS011;57282;52.514;13.458;2023-04-03T07:05:30;13.82;;;5.38;;
69769;SDS011;57282;52.514;13.458;2023-04-03T07:07:57;12.60;;;4.93;;
69769;SDS011;57282;52.514;13.458;2023-04-03T07:10:23;13.10;;;5.90;;
69769;SDS011;57282;52.514;13.458;2023-04-03T07:12:50;12.05;;;5.70;;
69769;SDS011;57282;52.514;13.458;2023-04-03T07:15:17;17.08;;;6.07;;
69769;SDS011;57282;52.514;13.458;2023-04-03T07:17:45;13.27;;;5.78;;
69769;SDS011;57282;52.514;13.458;2023-04-03T07:20:12;18.05;;;6.22;;
69769;SDS011;57282;52.514;13.458;2023-04-03T07:22:40;14.63;;;6.47;;
69769;SDS011;57282;52.514;13.458;2023-04-03T07:25:07;16.55;;;6.82;;
69769;SDS011;57282;52.514;13.458;2023-04-03T07:27:33;18.65;;;6.88;;
69769;SDS011;57282;52.514;13.458;2023-04-03T07:30:10;21.42;;;6.95;;
69769;SDS011;57282;52.514;13.458;2023-04-03T07:32:36;15.88;;;7.30;;
69769;SDS011;57282;52.514;13.458;2023-04-03T07:35:05;17.57;;;6.83;;
69769;SDS011;57282;52.514;13.458;2023-04-03T07:37:31;19.45;;;7.47;;
69769;SDS011;57282;52.514;13.458;2023-04-03T07:39:58;14.15;;;6.68;;
69769;SDS011;57282;52.514;13.458;2023-04-03T07:42:27;18.00;;;6.90;;
69769;SDS011;57282;52.514;13.458;2023-04-03T07:44:54;16.33;;;7.13;;
69769;SDS011;57282;52.514;13.458;2023-04-03T07:47:21;16.53;;;7.63;;
69769;SDS011;57282;52.514;13.458;2023-04-03T07:49:48;19.63;;;8.00;;
69769;SDS011;57282;52.514;13.458;2023-04-03T07:52:16;16.13;;;6.85;;
69769;SDS011;57282;52.514;13.458;2023-04-03T07:54:43;16.30;;;7.38;;
69769;SDS011;57282;52.514;13.458;2023-04-03T07:57:09;17.27;;;7.35;;
69769;SDS011;57282;52.514;13.458;2023-04-03T07:59:36;19.80;;;8.63;;
69769;SDS011;57282;52.514;13.458;2023-04-03T08:02:04;19.00;;;8.60;;
69769;SDS011;57282;52.514;13.458;2023-04-03T08:04:31;17.00;;;7.90;;
69769;SDS011;57282;52.514;13.458;2023-04-03T08:06:58;19.30;;;8.77;;
69769;SDS011;57282;52.514;13.458;2023-04-03T08:09:25;16.60;;;7.53;;
69769;SDS011;57282;52.514;13.458;2023-04-03T08:11:52;21.90;;;9.70;;
69769;SDS011;57282;52.514;13.458;2023-04-03T08:14:19;17.52;;;8.32;;
69769;SDS011;57282;52.514;13.458;2023-04-03T08:16:46;19.10;;;8.63;;
69769;SDS011;57282;52.514;13.458;2023-04-03T08:19:13;18.40;;;9.25;;
69769;SDS011;57282;52.514;13.458;2023-04-03T08:21:40;20.77;;;9.10;;
69769;SDS011;57282;52.514;13.458;2023-04-03T08:24:07;19.83;;;9.93;;
69769;SDS011;57282;52.514;13.458;2023-04-03T08:26:35;18.80;;;9.25;;
69769;SDS011;57282;52.514;13.458;2023-04-03T08:29:02;20.52;;;9.32;;
69769;SDS011;57282;52.514;13.458;2023-04-03T08:31:29;21.67;;;10.68;;
69769;SDS011;57282;52.514;13.458;2023-04-03T08:33:56;20.80;;;9.93;;
69769;SDS011;57282;52.514;13.458;2023-04-03T08:36:24;20.97;;;9.57;;
69769;SDS011;57282;52.514;13.458;2023-04-03T08:38:51;20.27;;;10.15;;
69769;SDS011;57282;52.514;13.458;2023-04-03T08:41:20;19.17;;;9.60;;
69769;SDS011;57282;52.514;13.458;2023-04-03T08:43:56;20.77;;;10.23;;
69769;SDS011;57282;52.514;13.458;2023-04-03T08:46:24;21.20;;;10.13;;
69769;SDS011;57282;52.514;13.458;2023-04-03T08:48:53;19.03;;;9.60;;
69769;SDS011;57282;52.514;13.458;2023-04-03T08:51:20;20.65;;;10.50;;
69769;SDS011;57282;52.514;13.458;2023-04-03T08:53:50;21.75;;;10.02;;
69769;SDS011;57282;52.514;13.458;2023-04-03T08:56:21;23.35;;;10.77;;
69769;SDS011;57282;52.514;13.458;2023-04-03T08:58:48;20.98;;;10.60;;
69769;SDS011;57282;52.514;13.458;2023-04-03T09:01:20;21.43;;;10.67;;
69769;SDS011;57282;52.514;13.458;2023-04-03T09:03:47;19.75;;;10.65;;
69769;SDS011;57282;52.514;13.458;2023-04-03T09:06:15;22.35;;;10.00;;
69769;SDS011;57282;52.514;13.458;2023-04-03T09:08:43;19.67;;;10.70;;
69769;SDS011;57282;52.514;13.458;2023-04-03T09:11:13;22.50;;;10.65;;
69769;SDS011;57282;52.514;13.458;2023-04-03T09:13:44;20.93;;;10.87;;
69769;SDS011;57282;52.514;13.458;2023-04-03T09:16:16;20.63;;;9.20;;
69769;SDS011;57282;52.514;13.458;2023-04-03T09:18:47;27.40;;;13.15;;
69769;SDS011;57282;52.514;13.458;2023-04-03T09:21:16;26.58;;;13.77;;
69769;SDS011;57282;52.514;13.458;2023-04-03T09:23:45;30.48;;;12.82;;
69769;SDS011;57282;52.514;13.458;2023-04-03T09:26:13;21.23;;;10.13;;
69769;SDS011;57282;52.514;13.458;2023-04-03T09:28:40;21.17;;;9.90;;
69769;SDS011;57282;52.514;13.458;2023-04-03T09:31:12;19.58;;;9.68;;
69769;SDS011;57282;52.514;13.458;2023-04-03T09:33:41;20.10;;;10.65;;
69769;SDS011;57282;52.514;13.458;2023-04-03T09:36:09;20.67;;;10.73;;
69769;SDS011;57282;52.514;13.458;2023-04-03T09:38:36;24.47;;;10.70;;
69769;SDS011;57282;52.514;13.458;2023-04-03T09:41:04;24.35;;;10.50;;
69769;SDS011;57282;52.514;13.458;2023-04-03T09:43:31;25.13;;;10.18;;
69769;SDS011;57282;52.514;13.458;2023-04-03T09:48:40;19.02;;;9.20;;
69769;SDS011;57282;52.514;13.458;2023-04-03T09:51:17;23.37;;;10.33;;
69769;SDS011;57282;52.514;13.458;2023-04-03T09:53:44;19.42;;;9.68;;
69769;SDS011;57282;52.514;13.458;2023-04-03T09:56:18;17.83;;;9.30;;
69769;SDS011;57282;52.514;13.458;2023-04-03T09:58:47;21.80;;;10.23;;
69769;SDS011;57282;52.514;13.458;2023-04-03T10:01:20;19.10;;;9.60;;
69769;SDS011;57282;52.514;13.458;2023-04-03T10:03:47;19.53;;;9.53;;
69769;SDS011;57282;52.514;13.458;2023-04-03T10:06:30;18.20;;;9.75;;
69769;SDS011;57282;52.514;13.458;2023-04-03T10:08:58;16.63;;;8.95;;
69769;SDS011;57282;52.514;13.458;2023-04-03T10:11:26;18.70;;;9.88;;
69769;SDS011;57282;52.514;13.458;2023-04-03T10:13:53;18.73;;;9.88;;
69769;SDS011;57282;52.514;13.458;2023-04-03T10:16:22;18.03;;;9.57;;
69769;SDS011;57282;52.514;13.458;2023-04-03T10:18:55;18.83;;;9.43;;
69769;SDS011;57282;52.514;13.458;2023-04-03T10:21:26;19.48;;;10.48;;
69769;SDS011;57282;52.514;13.458;2023-04-03T10:23:57;17.17;;;9.40;;
69769;SDS011;57282;52.514;13.458;2023-04-03T10:26:29;17.38;;;9.07;;
69769;SDS011;57282;52.514;13.458;2023-04-03T10:29:01;18.27;;;10.17;;
69769;SDS011;57282;52.514;13.458;2023-04-03T10:31:29;18.58;;;9.52;;
69769;SDS011;57282;52.514;13.458;2023-04-03T10:33:59;17.05;;;9.82;;
69769;SDS011;57282;52.514;13.458;2023-04-03T10:36:29;18.63;;;10.90;;
69769;SDS011;57282;52.514;13.458;2023-04-03T10:39:02;18.23;;;9.40;;
69769;SDS011;57282;52.514;13.458;2023-04-03T10:41:34;18.23;;;9.80;;
69769;SDS011;57282;52.514;13.458;2023-04-03T10:44:07;17.83;;;9.48;;
69769;SDS011;57282;52.514;13.458;2023-04-03T10:46:36;18.00;;;9.65;;
69769;SDS011;57282;52.514;13.458;2023-04-03T10:49:11;18.83;;;9.80;;
69769;SDS011;57282;52.514;13.458;2023-04-03T10:51:43;16.88;;;9.10;;
69769;SDS011;57282;52.514;13.458;2023-04-03T10:54:13;17.20;;;9.33;;
69769;SDS011;57282;52.514;13.458;2023-04-03T10:56:42;18.20;;;9.95;;
69769;SDS011;57282;52.514;13.458;2023-04-03T10:59:17;17.60;;;9.55;;
69769;SDS011;57282;52.514;13.458;2023-04-03T11:01:46;17.38;;;8.63;;
69769;SDS011;57282;52.514;13.458;2023-04-03T11:04:13;18.05;;;9.75;;
69769;SDS011;57282;52.514;13.458;2023-04-03T11:06:42;15.90;;;8.80;;
69769;SDS011;57282;52.514;13.458;2023-04-03T11:09:15;16.15;;;9.00;;
69769;SDS011;57282;52.514;13.458;2023-04-03T11:11:44;17.17;;;8.88;;
69769;SDS011;57282;52.514;13.458;2023-04-03T11:14:14;16.83;;;8.27;;
69769;SDS011;57282;52.514;13.458;2023-04-03T11:16:43;15.98;;;8.38;;
69769;SDS011;57282;52.514;13.458;2023-04-03T11:19:14;15.67;;;8.60;;
69769;SDS011;57282;52.514;13.458;2023-04-03T11:21:47;17.25;;;8.73;;
69769;SDS011;57282;52.514;13.458;2023-04-03T11:24:20;18.45;;;9.02;;
69769;SDS011;57282;52.514;13.458;2023-04-03T11:26:48;16.90;;;8.98;;
69769;SDS011;57282;52.514;13.458;2023-04-03T11:29:17;16.95;;;9.20;;
69769;SDS011;57282;52.514;13.458;2023-04-03T11:31:47;16.30;;;9.57;;
69769;SDS011;57282;52.514;13.458;2023-04-03T11:34:23;19.08;;;9.40;;
69769;SDS011;57282;52.514;13.458;2023-04-03T11:36:53;15.63;;;8.65;;
69769;SDS011;57282;52.514;13.458;2023-04-03T11:39:23;17.80;;;9.82;;
69769;SDS011;57282;52.514;13.458;2023-04-03T11:41:51;16.90;;;9.77;;
69769;SDS011;57282;52.514;13.458;2023-04-03T11:44:33;25.97;;;14.23;;
69769;SDS011;57282;52.514;13.458;2023-04-03T11:47:02;49.53;;;23.05;;
69769;SDS011;57282;52.514;13.458;2023-04-03T11:52:14;27.80;;;13.93;;
69769;SDS011;57282;52.514;13.458;2023-04-03T11:55:02;21.35;;;11.90;;
69769;SDS011;57282;52.514;13.458;2023-04-03T12:08:43;24.13;;;12.57;;
69769;SDS011;57282;52.514;13.458;2023-04-03T12:11:23;23.80;;;12.33;;
69769;SDS011;57282;52.514;13.458;2023-04-03T12:14:03;23.83;;;12.10;;
69769;SDS011;57282;52.514;13.458;2023-04-03T12:16:30;22.45;;;12.45;;
69769;SDS011;57282;52.514;13.458;2023-04-03T12:18:59;23.83;;;11.95;;
69769;SDS011;57282;52.514;13.458;2023-04-03T12:27:09;27.80;;;11.70;;
69769;SDS011;57282;52.514;13.458;2023-04-03T12:29:39;22.60;;;12.63;;
69769;SDS011;57282;52.514;13.458;2023-04-03T12:32:14;27.02;;;12.10;;
69769;SDS011;57282;52.514;13.458;2023-04-03T12:34:47;23.30;;;12.48;;
69769;SDS011;57282;52.514;13.458;2023-04-03T12:37:21;20.37;;;11.50;;
69769;SDS011;57282;52.514;13.458;2023-04-03T12:39:52;27.30;;;12.65;;
69769;SDS011;57282;52.514;13.458;2023-04-03T12:42:25;22.15;;;10.80;;
69769;SDS011;57282;52.514;13.458;2023-04-03T18:44:42;45.63;;;19.40;;
69769;SDS011;57282;52.514;13.458;2023-04-03T18:47:09;42.90;;;19.55;;
69769;SDS011;57282;52.514;13.458;2023-04-03T18:49:37;33.80;;;16.40;;
69769;SDS011;57282;52.514;13.458;2023-04-03T18:52:04;42.55;;;20.02;;
69769;SDS011;57282;52.514;13.458;2023-04-03T18:54:31;41.22;;;20.95;;
69769;SDS011;57282;52.514;13.458;2023-04-03T18:56:58;46.57;;;20.30;;
69769;SDS011;57282;52.514;13.458;2023-04-03T18:59:25;43.90;;;20.98;;
69769;SDS011;57282;52.514;13.458;2023-04-03T19:01:53;40.08;;;18.40;;
69769;SDS011;57282;52.514;13.458;2023-04-03T19:04:20;35.58;;;17.50;;
69769;SDS011;57282;52.514;13.458;2023-04-03T19:06:46;37.47;;;18.58;;
69769;SDS011;57282;52.514;13.458;2023-04-03T19:09:13;39.23;;;19.57;;
69769;SDS011;57282;52.514;13.458;2023-04-03T19:11:40;41.40;;;20.48;;
69769;SDS011;57282;52.514;13.458;2023-04-03T19:14:07;41.17;;;19.65;;
69769;SDS011;57282;52.514;13.458;2023-04-03T19:16:33;38.78;;;19.10;;
69769;SDS011;57282;52.514;13.458;2023-04-03T19:19:01;43.17;;;20.42;;
69769;SDS011;57282;52.514;13.458;2023-04-03T19:21:28;48.27;;;20.17;;
69769;SDS011;57282;52.514;13.458;2023-04-03T19:23:55;36.63;;;19.90;;
69769;SDS011;57282;52.514;13.458;2023-04-03T19:26:23;36.28;;;18.55;;
69769;SDS011;57282;52.514;13.458;2023-04-03T19:28:50;47.92;;;23.73;;
69769;SDS011;57282;52.514;13.458;2023-04-03T19:31:17;46.50;;;23.17;;
69769;SDS011;57282;52.514;13.458;2023-04-03T19:33:45;44.20;;;23.50;;
69769;SDS011;57282;52.514;13.458;2023-04-03T19:36:13;44.97;;;23.20;;
69769;SDS011;57282;52.514;13.458;2023-04-03T19:38:40;46.03;;;23.88;;
69769;SDS011;57282;52.514;13.458;2023-04-03T19:41:07;45.47;;;24.38;;
69769;SDS011;57282;52.514;13.458;2023-04-03T19:43:35;46.92;;;23.40;;
69769;SDS011;57282;52.514;13.458;2023-04-03T19:46:01;71.60;;;33.80;;
69769;SDS011;57282;52.514;13.458;2023-04-03T19:48:29;60.30;;;31.25;;
69769;SDS011;57282;52.514;13.458;2023-04-03T19:50:55;44.58;;;22.67;;
69769;SDS011;57282;52.514;13.458;2023-04-03T19:53:23;46.70;;;23.33;;
69769;SDS011;57282;52.514;13.458;2023-04-03T19:55:53;52.67;;;25.92;;
69769;SDS011;57282;52.514;13.458;2023-04-03T19:58:20;48.40;;;24.57;;
69769;SDS011;57282;52.514;13.458;2023-04-03T20:00:46;48.78;;;24.75;;
69769;SDS011;57282;52.514;13.458;2023-04-03T20:03:13;40.80;;;21.10;;
69769;SDS011;57282;52.514;13.458;2023-04-03T20:05:39;47.85;;;24.85;;
69769;SDS011;57282;52.514;13.458;2023-04-03T20:08:06;43.75;;;22.20;;
69769;SDS011;57282;52.514;13.458;2023-04-03T20:10:34;45.10;;;22.17;;
69769;SDS011;57282;52.514;13.458;2023-04-03T20:13:04;45.13;;;21.92;;
69769;SDS011;57282;52.514;13.458;2023-04-03T20:15:32;43.47;;;21.75;;
69769;SDS011;57282;52.514;13.458;2023-04-03T20:18:04;40.05;;;21.60;;
69769;SDS011;57282;52.514;13.458;2023-04-03T20:20:31;45.15;;;23.55;;
69769;SDS011;57282;52.514;13.458;2023-04-03T20:22:58;52.87;;;25.07;;
69769;SDS011;57282;52.514;13.458;2023-04-03T20:25:25;49.17;;;26.02;;
69769;SDS011;57282;52.514;13.458;2023-04-03T20:27:53;51.28;;;26.75;;
69769;SDS011;57282;52.514;13.458;2023-04-03T20:30:20;52.17;;;27.80;;
69769;SDS011;57282;52.514;13.458;2023-04-03T20:32:46;50.88;;;26.33;;
69769;SDS011;57282;52.514;13.458;2023-04-03T20:35:14;51.97;;;25.60;;
69769;SDS011;57282;52.514;13.458;2023-04-03T20:37:40;50.78;;;26.88;;
69769;SDS011;57282;52.514;13.458;2023-04-03T20:40:07;52.75;;;27.00;;
69769;SDS011;57282;52.514;13.458;2023-04-03T20:42:34;52.47;;;25.77;;
69769;SDS011;57282;52.514;13.458;2023-04-03T20:45:03;51.53;;;26.65;;
69769;SDS011;57282;52.514;13.458;2023-04-03T20:47:30;52.83;;;26.17;;
69769;SDS011;57282;52.514;13.458;2023-04-03T20:49:56;55.58;;;29.10;;
69769;SDS011;57282;52.514;13.458;2023-04-03T20:52:23;49.88;;;26.50;;
69769;SDS011;57282;52.514;13.458;2023-04-03T20:54:50;42.65;;;23.77;;